Clarion, Iowa
Current Conditions -  °F | °C
As of 10:15 AM on Sunday 25 Jan 2015 (Local Time) from KCAV Reporting Station
Overcast Overcast  
Wind Chill: 21°   Ceiling: 600
Heat Index: 32°   Visibility: 7mi
Dew Point: 32°   Wind: 17mph
Humidity: 100%   Direction: 30°NNE
Pressure: 29.89"   Gusts: 23mph
Location:  42.73°N, 93.73°W
Report Text: KCAV 251615Z AUTO 03015G20KT 7SM OVC006 M00/M00 A2989 RMK AO2
Loading
Personal Weather Stations






























Interactive Weather Map New forecast layout! Learn more

10-Day Weather Forecast

Advertisements
Track Severe Weather on mobile